Time;durP1;ratioP1;P1;durP2;ratioP2;P2;SDS_P1;SDS_P2;PMS_P1;PMS_P2;Temp;Humidity;BMP_temperature;BMP_pressure;BME280_temperature;BME280_humidity;BME280_pressure;Samples;Min_cycle;Max_cycle;Signal;HPM_P1;HPM_P2
2022/11/08 00:03:17;;;;;;;11.00;3.10;;;;;;;11.38;100.00;100854.44;5092578;28;20050;-76
2022/11/08 00:14:07;;;;;;;14.60;3.50;;;;;;;11.43;100.00;100849.16;5068241;28;20048;-76
2022/11/08 00:16:36;;;;;;;17.40;3.45;;;;;;;11.44;100.00;100848.28;5081035;28;20047;-76
2022/11/08 00:19:04;;;;;;;9.63;3.05;;;;;;;11.45;100.00;100850.91;5104453;28;20044;-76
2022/11/08 00:21:32;;;;;;;12.43;3.10;;;;;;;11.47;100.00;100850.91;5057825;28;20096;-76
2022/11/08 00:24:01;;;;;;;14.23;3.13;;;;;;;11.48;100.00;100850.91;5079932;28;20043;-76
2022/11/08 00:26:29;;;;;;;12.70;3.45;;;;;;;11.51;100.00;100844.72;5039240;28;20184;-76
2022/11/08 00:28:58;;;;;;;10.82;3.63;;;;;;;11.52;100.00;100846.50;5089913;28;20408;-76
2022/11/08 00:31:26;;;;;;;10.48;3.00;;;;;;;11.53;100.00;100843.00;5075647;28;20047;-76
2022/11/08 00:33:54;;;;;;;15.90;3.00;;;;;;;11.54;100.00;100850.03;5069470;28;20047;-76
2022/11/08 00:36:23;;;;;;;13.13;3.20;;;;;;;11.55;100.00;100851.81;5082842;28;20044;-76
2022/11/08 00:38:51;;;;;;;10.13;2.80;;;;;;;11.56;100.00;100847.41;5079583;28;20082;-76
2022/11/08 00:41:20;;;;;;;11.65;2.88;;;;;;;11.57;100.00;100850.03;5078440;28;20043;-76
2022/11/08 00:43:49;;;;;;;13.35;2.90;;;;;;;11.58;100.00;100840.34;5069321;28;20052;-76
2022/11/08 00:46:18;;;;;;;9.20;2.63;;;;;;;11.59;100.00;100829.78;5074602;28;20036;-76
2022/11/08 00:48:47;;;;;;;13.43;3.60;;;;;;;11.60;100.00;100822.75;5071572;28;20040;-76
2022/11/08 00:51:18;;;;;;;14.88;3.20;;;;;;;11.60;100.00;100828.91;5099591;28;20051;-76
2022/11/08 00:53:46;;;;;;;16.13;3.58;;;;;;;11.61;100.00;100838.59;5065023;28;20347;-76
2022/11/08 00:56:15;;;;;;;10.57;3.33;;;;;;;11.62;100.00;100829.78;5066834;28;20044;-76
2022/11/08 00:58:43;;;;;;;10.65;3.17;;;;;;;11.62;100.00;100831.53;5035472;28;20971;-76
2022/11/08 01:01:18;;;;;;;11.25;3.03;;;;;;;11.62;100.00;100828.91;5067253;28;20043;-77
2022/11/08 01:03:48;;;;;;;13.00;3.60;;;;;;;11.62;100.00;100832.41;5082639;28;20050;-76
2022/11/08 01:06:19;;;;;;;14.15;3.15;;;;;;;11.63;100.00;100828.91;5084652;28;20035;-76
2022/11/08 01:08:48;;;;;;;11.23;3.13;;;;;;;11.63;100.00;100836.81;5093301;28;20048;-76
2022/11/08 01:11:22;;;;;;;12.00;3.35;;;;;;;11.64;100.00;100837.69;5092834;28;20039;-77
2022/11/08 01:13:55;;;;;;;14.25;3.05;;;;;;;11.63;100.00;100828.91;5071311;28;20428;-76
2022/11/08 01:16:26;;;;;;;7.72;2.90;;;;;;;11.63;100.00;100835.97;5068134;28;20031;-76
2022/11/08 01:18:55;;;;;;;10.90;2.67;;;;;;;11.64;100.00;100835.91;5084199;28;20509;-76
2022/11/08 01:21:24;;;;;;;10.25;2.55;;;;;;;11.63;100.00;100831.53;5105610;28;20078;-77
2022/11/08 01:23:53;;;;;;;14.55;3.22;;;;;;;11.64;100.00;100837.69;5098009;28;20078;-77
2022/11/08 01:26:25;;;;;;;14.85;3.10;;;;;;;11.65;100.00;100831.56;5076412;28;20036;-77
2022/11/08 01:28:55;;;;;;;13.15;3.50;;;;;;;11.63;100.00;100831.53;5066723;28;20500;-77
2022/11/08 01:31:28;;;;;;;11.40;2.90;;;;;;;11.63;100.00;100831.53;5031889;27;20043;-77
2022/11/08 01:33:58;;;;;;;10.73;2.25;;;;;;;11.62;100.00;100821.84;5078091;28;20504;-77
2022/11/08 01:36:27;;;;;;;14.15;3.50;;;;;;;11.62;100.00;100820.97;5071916;28;20040;-77
2022/11/08 01:38:56;;;;;;;10.27;3.30;;;;;;;11.60;100.00;100812.19;5088733;28;20055;-77
2022/11/08 01:41:26;;;;;;;8.63;2.55;;;;;;;11.59;100.00;100821.88;5084925;28;20413;-77
2022/11/08 01:43:57;;;;;;;17.15;2.92;;;;;;;11.58;100.00;100817.47;5070359;28;20051;-77
2022/11/08 01:46:43;;;;;;;13.68;3.60;;;;;;;11.56;100.00;100816.59;5051902;28;20044;-77
2022/11/08 01:49:23;;;;;;;12.48;3.38;;;;;;;11.52;100.00;100815.72;5084139;28;20054;-77
2022/11/08 01:52:05;;;;;;;12.38;3.33;;;;;;;11.48;100.00;100818.38;5084294;28;20051;-77
2022/11/08 01:54:55;;;;;;;16.63;3.80;;;;;;;11.44;100.00;100821.91;5101500;28;20043;-76
2022/11/08 01:57:44;;;;;;;16.27;3.08;;;;;;;11.40;100.00;100814.84;5095028;28;20401;-77
2022/11/08 02:00:15;;;;;;;9.07;2.65;;;;;;;11.37;100.00;100815.72;5079867;28;20043;-77
2022/11/08 02:02:46;;;;;;;11.00;2.57;;;;;;;11.32;100.00;100818.38;5074281;28;20283;-77
2022/11/08 02:05:24;;;;;;;11.30;3.08;;;;;;;11.32;100.00;100814.84;5096464;27;20051;-77
2022/11/08 02:08:27;;;;;;;12.70;2.80;;;;;;;11.32;100.00;100809.56;5106538;28;20063;-77
2022/11/08 02:10:57;;;;;;;10.90;2.65;;;;;;;11.32;100.00;100807.84;5011932;28;20400;-77
2022/11/08 02:13:28;;;;;;;15.38;3.03;;;;;;;11.34;100.00;100801.66;5061501;28;20487;-77
2022/11/08 02:15:57;;;;;;;15.48;2.70;;;;;;;11.34;100.00;100796.38;5073461;28;20051;-77
2022/11/08 02:18:31;;;;;;;11.30;3.20;;;;;;;11.35;100.00;100795.53;5060318;27;20500;-77
2022/11/08 02:21:18;;;;;;;9.68;3.47;;;;;;;11.36;100.00;100797.25;5086234;28;20138;-77
2022/11/08 02:23:47;;;;;;;5.30;1.77;;;;;;;11.37;100.00;100799.91;5085858;28;20277;-77
2022/11/08 02:26:19;;;;;;;14.98;2.65;;;;;;;11.38;100.00;100790.22;5081031;28;20084;-77
2022/11/08 02:28:49;;;;;;;12.00;2.85;;;;;;;11.38;100.00;100792.84;5063645;28;20261;-77
2022/11/08 02:31:20;;;;;;;8.60;2.83;;;;;;;11.38;100.00;100784.94;5065406;28;20533;-77
2022/11/08 02:33:49;;;;;;;9.60;2.60;;;;;;;11.35;100.00;100777.06;5085060;28;20047;-77
2022/11/08 02:36:23;;;;;;;7.18;2.20;;;;;;;11.35;100.00;100777.06;5091237;28;20055;-77
2022/11/08 02:38:56;;;;;;;8.85;2.47;;;;;;;11.32;100.00;100781.44;5098629;28;20051;-77
2022/11/08 02:41:24;;;;;;;10.88;2.67;;;;;;;11.29;100.00;100773.53;5089742;28;20493;-77
2022/11/08 02:43:56;;;;;;;7.78;2.83;;;;;;;11.27;100.00;100772.66;5072448;28;20047;-77
2022/11/08 02:46:24;;;;;;;9.35;2.70;;;;;;;11.23;100.00;100776.19;5043896;28;20039;-77
2022/11/08 02:48:53;;;;;;;14.05;3.15;;;;;;;11.20;100.00;100776.16;5089264;28;20048;-77
2022/11/08 02:51:46;;;;;;;10.52;2.30;;;;;;;11.16;100.00;100768.28;5073926;28;20044;-77
2022/11/08 02:54:14;;;;;;;13.73;2.80;;;;;;;11.14;100.00;100762.13;5083197;28;20047;-77
2022/11/08 02:56:43;;;;;;;7.97;2.40;;;;;;;11.10;100.00;100769.16;5079136;28;20245;-77
2022/11/08 02:59:11;;;;;;;11.65;3.05;;;;;;;11.07;100.00;100758.59;5079322;28;20500;-77
2022/11/08 03:01:40;;;;;;;10.70;3.15;;;;;;;11.04;100.00;100762.13;5084278;28;20078;-77
2022/11/08 03:04:09;;;;;;;8.68;2.38;;;;;;;11.01;100.00;100762.13;5074603;27;20058;-77
2022/11/08 03:06:37;;;;;;;10.13;2.47;;;;;;;10.98;100.00;100762.09;5072103;28;20114;-77
2022/11/08 03:09:06;;;;;;;5.30;3.05;;;;;;;10.96;100.00;100763.84;5067791;28;20438;-77
2022/11/08 03:11:35;;;;;;;11.90;2.67;;;;;;;10.92;100.00;100764.75;5066479;28;20263;-77
2022/11/08 03:14:04;;;;;;;14.90;3.30;;;;;;;10.88;100.00;100766.50;5094760;27;20297;-77
2022/11/08 03:16:32;;;;;;;7.13;2.70;;;;;;;10.87;100.00;100766.53;5077888;28;20055;-77
2022/11/08 03:19:00;;;;;;;8.57;2.40;;;;;;;10.84;100.00;100769.16;5029740;28;20044;-77
2022/11/08 03:21:29;;;;;;;13.52;3.60;;;;;;;10.82;100.00;100774.41;5062288;28;20048;-77
2022/11/08 03:23:57;;;;;;;12.45;3.45;;;;;;;10.80;100.00;100770.03;5077738;28;20044;-77
2022/11/08 03:26:25;;;;;;;11.68;2.90;;;;;;;10.77;100.00;100776.16;5064769;28;20035;-76
2022/11/08 03:28:54;;;;;;;14.32;2.60;;;;;;;10.76;100.00;100778.81;5096372;27;20058;-76
2022/11/08 03:31:22;;;;;;;4.80;2.33;;;;;;;10.74;100.00;100773.53;5087315;28;20044;-76
2022/11/08 03:33:51;;;;;;;6.03;2.80;;;;;;;10.72;100.00;100776.16;5032452;28;20505;-76
2022/11/08 03:36:19;;;;;;;8.20;2.83;;;;;;;10.70;100.00;100766.50;5097057;27;20035;-76
2022/11/08 03:38:47;;;;;;;10.57;2.60;;;;;;;10.69;100.00;100767.38;5066210;28;20599;-76
2022/11/08 03:41:16;;;;;;;17.00;3.10;;;;;;;10.68;100.00;100770.88;5084502;28;20055;-76
2022/11/08 03:43:44;;;;;;;9.77;3.03;;;;;;;10.65;100.00;100768.25;5075099;28;20365;-76
2022/11/08 03:46:12;;;;;;;8.95;3.05;;;;;;;10.62;100.00;100761.19;5080755;28;20055;-77
2022/11/08 03:48:41;;;;;;;9.48;2.97;;;;;;;10.61;100.00;100769.13;5053973;28;20071;-77
2022/11/08 03:51:11;;;;;;;9.75;2.28;;;;;;;10.60;100.00;100767.34;5082748;28;20529;-77
2022/11/08 03:53:40;;;;;;;11.70;2.97;;;;;;;10.58;100.00;100758.56;5059560;28;20043;-77
2022/11/08 03:56:08;;;;;;;14.23;2.83;;;;;;;10.57;100.00;100765.59;5047391;28;20527;-77
2022/11/08 03:58:36;;;;;;;10.18;3.00;;;;;;;10.54;100.00;100755.91;5074149;28;20331;-76
2022/11/08 04:01:19;;;;;;;12.38;2.92;;;;;;;10.53;100.00;100748.91;5097748;28;20048;-77
2022/11/08 04:03:48;;;;;;;13.82;3.58;;;;;;;10.53;100.00;100745.41;5059025;28;20383;-76
2022/11/08 04:06:16;;;;;;;8.20;2.65;;;;;;;10.51;100.00;100742.75;5055305;28;20036;-76
2022/11/08 04:08:44;;;;;;;6.60;2.80;;;;;;;10.51;100.00;100742.75;5058086;28;20569;-76
2022/11/08 04:16:46;;;;;;;15.50;3.60;;;;;;;10.48;100.00;100732.19;5058476;28;20058;-76
2022/11/08 04:22:05;;;;;;;8.52;2.33;;;;;;;10.48;100.00;100724.28;5087316;28;20451;-76
2022/11/08 04:24:34;;;;;;;7.70;2.83;;;;;;;10.49;100.00;100720.78;5057962;28;20492;-77
2022/11/08 04:27:02;;;;;;;10.43;3.42;;;;;;;10.49;100.00;100718.16;5047704;28;20062;-76
2022/11/08 04:29:31;;;;;;;8.45;2.83;;;;;;;10.48;100.00;100713.75;5044517;28;20055;-76
2022/11/08 04:31:59;;;;;;;13.60;3.05;;;;;;;10.48;100.00;100718.16;5056583;28;20051;-76
2022/11/08 04:34:28;;;;;;;8.95;3.08;;;;;;;10.47;100.00;100713.75;5056284;28;20047;-76
2022/11/08 04:36:56;;;;;;;10.27;3.05;;;;;;;10.45;100.00;100710.22;5064976;28;20431;-76
2022/11/08 04:39:24;;;;;;;10.82;4.10;;;;;;;10.45;100.00;100710.22;5087270;28;20047;-76
2022/11/08 04:41:53;;;;;;;15.52;3.28;;;;;;;10.43;100.00;100706.72;5069545;28;20255;-76
2022/11/08 04:44:29;;;;;;;8.57;2.78;;;;;;;10.41;100.00;100698.81;5083672;28;20036;-77
2022/11/08 04:46:57;;;;;;;10.27;2.17;;;;;;;10.38;100.00;100696.19;5075071;28;20040;-77
2022/11/08 04:49:26;;;;;;;8.35;2.78;;;;;;;10.37;100.00;100699.69;5087186;28;20043;-77
2022/11/08 04:51:56;;;;;;;7.90;2.78;;;;;;;10.35;100.00;100688.28;5041530;28;20071;-77
2022/11/08 04:54:26;;;;;;;6.72;2.80;;;;;;;10.33;100.00;100696.16;5078263;28;20516;-77
2022/11/08 04:56:54;;;;;;;9.55;2.55;;;;;;;10.32;100.00;100696.16;5067684;28;20055;-77
2022/11/08 04:59:23;;;;;;;9.02;2.50;;;;;;;10.30;100.00;100693.53;5107216;28;20040;-77
2022/11/08 05:01:51;;;;;;;10.13;3.65;;;;;;;10.27;100.00;100695.25;5066579;28;20177;-77
2022/11/08 05:04:19;;;;;;;8.02;2.75;;;;;;;10.26;100.00;100683.81;5078922;28;20055;-77
2022/11/08 05:06:48;;;;;;;6.53;2.22;;;;;;;10.25;100.00;100687.34;5049054;28;20070;-77
2022/11/08 05:09:16;;;;;;;11.77;3.40;;;;;;;10.24;100.00;100682.06;5081530;28;20052;-77
2022/11/08 05:11:45;;;;;;;9.93;3.15;;;;;;;10.25;100.00;100670.69;5100897;28;20047;-77
2022/11/08 05:14:13;;;;;;;15.18;3.08;;;;;;;10.26;100.00;100678.56;5100349;28;20489;-77
2022/11/08 05:16:41;;;;;;;4.65;2.55;;;;;;;10.29;100.00;100682.97;5091484;28;20385;-76
2022/11/08 05:19:10;;;;;;;9.00;2.40;;;;;;;10.31;100.00;100670.72;5063685;28;20253;-77
2022/11/08 05:24:27;;;;;;;5.05;2.83;;;;;;;10.37;100.00;100670.72;5083848;28;19923;-77
2022/11/08 05:26:56;;;;;;;9.63;2.55;;;;;;;10.38;100.00;100668.94;5079269;28;20051;-76
2022/11/08 05:29:24;;;;;;;5.65;2.55;;;;;;;10.37;100.00;100659.31;5073384;28;20035;-76
2022/11/08 05:31:53;;;;;;;8.13;3.13;;;;;;;10.37;100.00;100656.66;5103698;28;20276;-77
2022/11/08 05:34:23;;;;;;;11.50;3.33;;;;;;;10.35;100.00;100659.28;5066052;28;20052;-76
2022/11/08 05:36:51;;;;;;;9.23;3.65;;;;;;;10.32;100.00;100659.28;5063160;28;21787;-78
2022/11/08 05:39:20;;;;;;;13.05;2.88;;;;;;;10.30;100.00;100655.75;5080890;28;20069;-76
2022/11/08 05:41:48;;;;;;;8.35;3.78;;;;;;;10.27;100.00;100658.38;5096433;27;20390;-77
2022/11/08 05:44:16;;;;;;;10.85;3.55;;;;;;;10.24;100.00;100655.75;5089825;28;20055;-77
2022/11/08 05:46:45;;;;;;;6.28;2.42;;;;;;;10.22;100.00;100657.50;5069047;28;20054;-77
2022/11/08 05:49:18;;;;;;;9.15;2.60;;;;;;;10.19;100.00;100654.84;5053123;28;20048;-76
2022/11/08 05:51:47;;;;;;;8.75;3.13;;;;;;;10.15;100.00;100653.94;5086966;28;20048;-76
2022/11/08 05:54:16;;;;;;;14.38;3.15;;;;;;;10.10;100.00;100646.06;5046881;28;20052;-76
2022/11/08 05:56:44;;;;;;;8.60;2.92;;;;;;;10.09;100.00;100643.41;5084428;28;20043;-77
2022/11/08 05:59:12;;;;;;;9.82;3.05;;;;;;;10.05;100.00;100636.41;5085558;28;20054;-76
2022/11/08 06:01:41;;;;;;;9.60;2.90;;;;;;;10.02;100.00;100637.28;5098577;28;20056;-76
2022/11/08 06:04:09;;;;;;;10.10;3.03;;;;;;;10.01;100.00;100624.09;5058355;28;20086;-76
2022/11/08 06:06:38;;;;;;;6.40;3.40;;;;;;;9.99;100.00;100621.47;5061399;28;20048;-76
2022/11/08 06:09:06;;;;;;;10.02;3.55;;;;;;;9.96;100.00;100618.81;5044463;28;20267;-75
2022/11/08 06:11:34;;;;;;;6.10;2.50;;;;;;;9.94;100.00;100607.41;5064317;28;20042;-75
2022/11/08 06:14:05;;;;;;;7.43;3.55;;;;;;;9.92;100.00;100609.16;5088922;28;20150;-75
2022/11/08 06:16:33;;;;;;;;;;;;;;;9.89;100.00;100603.91;5065411;28;20047;-75
2022/11/08 06:19:04;;;;;;;8.82;3.30;;;;;;;9.87;100.00;100606.53;5088763;28;19931;-81
2022/11/08 06:21:32;;;;;;;8.48;2.88;;;;;;;9.86;100.00;100607.41;5054365;28;20051;-83
2022/11/08 06:24:00;;;;;;;13.10;3.38;;;;;;;9.84;100.00;100600.38;5078313;28;20399;-82
2022/11/08 06:26:29;;;;;;;7.75;3.42;;;;;;;9.84;100.00;100592.50;5072178;28;20043;-83
2022/11/08 06:29:00;;;;;;;9.07;2.85;;;;;;;9.82;100.00;100596.88;5068407;28;20048;-83
2022/11/08 06:31:28;;;;;;;10.48;3.10;;;;;;;9.82;100.00;100596.88;5059046;28;20044;-84
2022/11/08 06:33:56;;;;;;;10.50;3.53;;;;;;;9.79;100.00;100579.31;5073766;27;20377;-84
2022/11/08 06:36:25;;;;;;;10.23;3.05;;;;;;;9.80;100.00;100580.19;5069404;28;20060;-84
2022/11/08 06:38:57;;;;;;;8.95;2.67;;;;;;;9.80;100.00;100577.56;5089451;28;20054;-83
2022/11/08 06:41:28;;;;;;;10.40;3.13;;;;;;;9.80;100.00;100577.56;5061067;28;20040;-83
2022/11/08 06:43:57;;;;;;;10.75;4.63;;;;;;;9.80;100.00;100573.19;5090042;28;20047;-84
2022/11/08 06:46:26;;;;;;;7.72;3.58;;;;;;;9.82;100.00;100581.09;5079400;28;20122;-83
2022/11/08 06:48:55;;;;;;;8.70;3.38;;;;;;;9.81;100.00;100574.03;5075728;28;20059;-82
2022/11/08 06:51:23;;;;;;;8.32;3.22;;;;;;;9.82;100.00;100570.56;5056142;28;20040;-82
2022/11/08 06:53:52;;;;;;;5.88;3.22;;;;;;;9.82;100.00;100560.03;5087955;28;20812;-86
2022/11/08 06:56:23;;;;;;;11.60;3.42;;;;;;;9.82;100.00;100576.69;5042685;28;20052;-82
2022/11/08 06:58:52;;;;;;;8.40;3.13;;;;;;;9.82;100.00;100560.91;5062240;28;20388;-83
2022/11/08 07:01:21;;;;;;;9.13;3.63;;;;;;;9.83;100.00;100567.94;5093474;28;20031;-82
2022/11/08 07:03:50;;;;;;;9.95;3.45;;;;;;;9.85;100.00;100571.44;5080503;28;20051;-83
2022/11/08 07:06:18;;;;;;;11.07;3.60;;;;;;;9.86;100.00;100565.28;5051099;28;20219;-82
2022/11/08 07:08:47;;;;;;;12.25;3.35;;;;;;;9.89;100.00;100573.19;5069089;28;20058;-82
2022/11/08 07:11:16;;;;;;;16.17;3.65;;;;;;;9.91;100.00;100575.84;5003273;28;20035;-82
2022/11/08 07:13:46;;;;;;;9.65;3.47;;;;;;;9.92;100.00;100564.41;5085936;28;20046;-82
2022/11/08 07:16:14;;;;;;;9.00;3.77;;;;;;;9.94;100.00;100557.41;5085171;28;20028;-82
2022/11/08 07:18:43;;;;;;;8.00;3.30;;;;;;;9.95;100.00;100560.03;5075145;28;20056;-82
2022/11/08 07:21:11;;;;;;;5.40;2.85;;;;;;;9.98;100.00;100559.19;5072316;28;20046;-82
2022/11/08 07:23:40;;;;;;;6.63;3.17;;;;;;;9.99;100.00;100552.16;5089896;28;20051;-82
2022/11/08 07:26:10;;;;;;;8.25;3.15;;;;;;;10.00;100.00;100549.53;5068706;28;20101;-82
2022/11/08 07:28:38;;;;;;;13.02;3.38;;;;;;;10.02;100.00;100549.50;5106030;28;21502;-82
2022/11/08 07:31:08;;;;;;;8.95;3.05;;;;;;;10.03;100.00;100544.25;5098351;27;20055;-82
2022/11/08 07:33:36;;;;;;;6.72;2.72;;;;;;;10.05;100.00;100534.59;5079536;28;20172;-83
2022/11/08 07:36:05;;;;;;;6.45;2.45;;;;;;;10.06;100.00;100539.00;5068894;28;20041;-82
2022/11/08 07:38:47;;;;;;;11.43;3.45;;;;;;;10.09;100.00;100536.38;5055307;27;21282;-82
2022/11/08 07:41:16;;;;;;;6.20;2.47;;;;;;;10.09;100.00;100525.84;5011680;28;20502;-83
2022/11/08 07:43:44;;;;;;;9.38;3.05;;;;;;;10.12;100.00;100528.47;5055308;28;20041;-82
2022/11/08 07:46:16;;;;;;;5.78;2.50;;;;;;;10.14;100.00;100531.97;5058621;28;20037;-83
2022/11/08 07:48:45;;;;;;;7.30;2.53;;;;;;;10.19;100.00;100529.34;5059630;28;20033;-82
2022/11/08 07:51:13;;;;;;;5.68;2.22;;;;;;;10.23;100.00;100539.00;5039452;28;20067;-82
2022/11/08 07:53:43;;;;;;;6.85;2.53;;;;;;;10.27;100.00;100531.97;5052754;28;20491;-82
2022/11/08 07:56:14;;;;;;;7.65;2.95;;;;;;;10.30;100.00;100527.63;5025101;28;20043;-83
2022/11/08 07:58:42;;;;;;;8.23;2.38;;;;;;;10.36;100.00;100528.47;5038943;28;20052;-82
2022/11/08 08:01:11;;;;;;;7.43;3.17;;;;;;;10.39;100.00;100526.72;5020792;28;20034;-82
2022/11/08 08:03:39;;;;;;;4.10;2.05;;;;;;;10.43;100.00;100532.84;5056145;28;20446;-82
2022/11/08 08:06:09;;;;;;;6.22;2.38;;;;;;;10.47;100.00;100530.25;5057902;28;20044;-82
2022/11/08 08:08:37;;;;;;;5.88;2.42;;;;;;;10.53;100.00;100534.63;5029618;28;20375;-82
2022/11/08 08:11:06;;;;;;;6.15;2.47;;;;;;;10.59;100.00;100523.19;5066496;28;20056;-82
2022/11/08 08:13:34;;;;;;;7.25;2.63;;;;;;;10.64;100.00;100513.50;5018902;28;20049;-82
2022/11/08 08:16:04;;;;;;;3.78;1.70;;;;;;;10.70;100.00;100516.13;5048653;28;20378;-82
2022/11/08 08:18:34;;;;;;;4.63;2.13;;;;;;;10.77;100.00;100517.84;5038675;28;20032;-82
2022/11/08 08:21:02;;;;;;;5.20;2.20;;;;;;;10.84;100.00;100518.72;5031739;28;20048;-82
2022/11/08 08:23:32;;;;;;;4.00;1.83;;;;;;;10.90;100.00;100513.44;5045957;28;20045;-82
2022/11/08 08:26:02;;;;;;;5.68;1.75;;;;;;;10.98;100.00;100516.03;5031401;28;20053;-81
2022/11/08 08:28:31;;;;;;;7.05;2.00;;;;;;;11.03;100.00;100499.31;5004584;28;20044;-83
2022/11/08 08:30:59;;;;;;;4.57;2.25;;;;;;;11.11;100.00;100501.91;5034807;28;21012;-85
2022/11/08 08:33:28;;;;;;;7.40;2.10;;;;;;;11.16;100.00;100497.50;5041203;28;20045;-84
2022/11/08 08:35:59;;;;;;;4.10;1.70;;;;;;;11.22;100.00;100494.81;5041067;28;20052;-82
2022/11/08 08:38:32;;;;;;;4.78;1.83;;;;;;;11.26;100.00;100491.28;5030569;28;20036;-83
2022/11/08 08:41:01;;;;;;;6.63;1.88;;;;;;;11.30;100.00;100497.41;5001501;28;20033;-83
2022/11/08 08:43:33;;;;;;;5.53;1.95;;;;;;;11.31;100.00;100481.59;4998041;28;20061;-83
2022/11/08 08:46:04;;;;;;;5.75;1.70;;;;;;;11.35;100.00;100471.03;5017861;28;20041;-82
2022/11/08 08:48:34;;;;;;;2.70;1.48;;;;;;;11.37;100.00;100477.16;5023031;28;20525;-82
2022/11/08 08:51:03;;;;;;;6.55;1.92;;;;;;;11.40;100.00;100478.03;5023548;28;20053;-82
2022/11/08 08:53:32;;;;;;;2.47;1.50;;;;;;;11.45;100.00;100462.16;5021665;28;20470;-83
2022/11/08 08:56:04;;;;;;;6.35;1.90;;;;;;;11.49;100.00;100467.44;5009678;28;20050;-83
2022/11/08 08:58:32;;;;;;;3.03;1.85;;;;;;;11.57;100.00;100469.09;4997010;28;20050;-82
2022/11/08 09:01:03;;;;;;;4.53;1.80;;;;;;;11.64;100.00;100462.91;5034188;28;20041;-82
2022/11/08 09:03:51;;;;;;;4.03;2.20;;;;;;;11.67;100.00;100471.69;5038048;28;20072;-83
2022/11/08 09:06:20;;;;;;;6.18;2.00;;;;;;;11.71;100.00;100467.25;5022925;28;20042;-83
2022/11/08 09:08:48;;;;;;;2.78;1.80;;;;;;;11.70;100.00;100471.69;5027848;28;21627;-83
2022/11/08 09:11:17;;;;;;;4.05;1.67;;;;;;;11.74;100.00;100471.63;5020102;28;20391;-83
2022/11/08 09:13:46;;;;;;;6.10;2.10;;;;;;;11.71;100.00;100462.84;5016371;28;20038;-84
2022/11/08 09:16:20;;;;;;;1.75;1.63;;;;;;;11.70;100.00;100454.94;4987269;28;20048;-85
2022/11/08 09:18:48;;;;;;;5.35;1.80;;;;;;;11.70;100.00;100463.75;5005399;28;20365;-84
2022/11/08 09:21:18;;;;;;;2.53;1.80;;;;;;;11.70;100.00;100465.50;5032107;28;20414;-83
2022/11/08 09:23:46;;;;;;;5.32;1.85;;;;;;;11.69;100.00;100475.19;5015096;28;20046;-83
2022/11/08 09:26:16;;;;;;;3.30;1.63;;;;;;;11.70;100.00;100458.47;5007098;28;20060;-83
2022/11/08 09:28:45;;;;;;;3.50;1.83;;;;;;;11.73;100.00;100452.28;5025916;28;20044;-83
2022/11/08 09:31:15;;;;;;;3.58;1.83;;;;;;;11.76;100.00;100444.34;4962836;28;20036;-83
2022/11/08 09:33:43;;;;;;;4.00;1.83;;;;;;;11.81;100.00;100452.22;5027750;28;20049;-84
2022/11/08 09:36:12;;;;;;;5.15;1.70;;;;;;;11.82;100.00;100454.00;4978425;28;20053;-84
2022/11/08 09:38:41;;;;;;;3.83;1.88;;;;;;;11.83;100.00;100464.53;5023270;28;20118;-84
2022/11/08 09:41:56;;;;;;;2.70;1.60;;;;;;;11.87;100.00;100452.16;5015557;28;20044;-84
2022/11/08 09:44:27;;;;;;;5.43;1.90;;;;;;;11.92;100.00;100460.97;5022816;28;20399;-83
2022/11/08 09:47:01;;;;;;;6.60;2.03;;;;;;;11.96;100.00;100461.81;4999031;28;20034;-83
2022/11/08 09:50:13;;;;;;;4.95;2.08;;;;;;;12.00;100.00;100458.25;5014548;28;20368;-84
2022/11/08 09:52:47;;;;;;;3.28;1.73;;;;;;;12.06;100.00;100442.34;5018642;28;20045;-84
2022/11/08 09:55:34;;;;;;;4.35;1.88;;;;;;;12.12;100.00;100450.22;5045158;28;20049;-85
2022/11/08 09:58:27;;;;;;;5.03;1.75;;;;;;;12.19;100.00;100451.94;5023324;28;20042;-84
2022/11/08 10:00:55;;;;;;;6.90;2.03;;;;;;;12.26;100.00;100443.03;5030433;28;20049;-84
2022/11/08 10:03:24;;;;;;;3.95;1.70;;;;;;;12.32;100.00;100443.88;4997718;28;20040;-84
2022/11/08 10:06:34;;;;;;;5.25;2.00;;;;;;;12.38;100.00;100444.69;5028115;28;20046;-82
2022/11/08 10:09:21;;;;;;;3.67;1.92;;;;;;;12.43;100.00;100437.56;5021351;28;20040;-83
2022/11/08 10:12:01;;;;;;;4.55;2.00;;;;;;;12.48;100.00;100441.03;5009323;28;20058;-83
2022/11/08 10:14:42;;;;;;;2.63;1.98;;;;;;;12.56;100.00;100440.94;5021788;28;20057;-83
2022/11/08 10:17:50;;;;;;;3.65;1.52;;;;;;;12.65;100.00;100442.63;5012112;28;20037;-83
2022/11/08 10:20:58;;;;;;;5.70;1.95;;;;;;;12.74;100.00;100431.94;5011677;28;20166;-83
2022/11/08 10:24:13;;;;;;;2.50;1.80;;;;;;;12.80;100.00;100439.78;5025880;28;20046;-83
2022/11/08 10:26:45;;;;;;;2.88;1.85;;;;;;;12.86;100.00;100420.34;5030168;28;20049;-84
2022/11/08 10:29:19;;;;;;;3.53;2.05;;;;;;;12.90;100.00;100421.16;5029732;28;20037;-83
2022/11/08 10:32:10;;;;;;;5.20;1.45;;;;;;;12.93;100.00;100422.00;5018024;28;20354;-83
2022/11/08 10:34:54;;;;;;;6.28;1.60;;;;;;;12.96;100.00;100429.00;5015317;28;20617;-82
2022/11/08 10:37:24;;;;;;;2.50;1.55;;;;;;;12.98;100.00;100430.72;5018376;28;20049;-84
2022/11/08 10:40:21;;;;;;;5.07;1.77;;;;;;;13.00;100.00;100414.84;4999746;28;20054;-83
2022/11/08 10:43:11;;;;;;;3.17;1.48;;;;;;;13.02;100.00;100413.94;5012243;28;20710;-83
2022/11/08 10:45:39;;;;;;;4.25;1.60;;;;;;;13.04;100.00;100411.25;5008228;28;20044;-83
2022/11/08 10:48:10;;;;;;;2.45;1.60;;;;;;;13.04;100.00;100403.31;5014688;28;20038;-83
2022/11/08 10:50:50;;;;;;;2.97;1.60;;;;;;;13.04;100.00;100403.31;5011838;28;20037;-84
2022/11/08 10:53:26;;;;;;;3.60;1.65;;;;;;;13.04;100.00;100401.56;5027199;28;20041;-84
2022/11/08 10:56:00;;;;;;;3.67;1.38;;;;;;;13.06;100.00;100409.47;5012271;28;20026;-84
2022/11/08 10:58:38;;;;;;;4.70;1.70;;;;;;;13.08;100.00;100418.28;5018929;28;20044;-84
2022/11/08 11:01:16;;;;;;;3.03;1.48;;;;;;;13.10;100.00;100403.25;5016070;28;20050;-84
2022/11/08 11:03:49;;;;;;;2.10;1.25;;;;;;;13.11;100.00;100431.44;5003825;28;20034;-84
2022/11/08 11:06:31;;;;;;;4.13;2.25;;;;;;;13.11;100.00;100435.88;5015201;28;20042;-84
2022/11/08 11:09:03;;;;;;;4.55;1.60;;;;;;;13.11;100.00;100436.75;5033082;28;20239;-84
2022/11/08 11:11:32;;;;;;;3.55;1.77;;;;;;;13.10;100.00;100423.53;4999465;28;20045;-82
2022/11/08 11:14:15;;;;;;;3.97;1.73;;;;;;;13.09;100.00;100413.84;5012134;28;20037;-84
2022/11/08 11:17:01;;;;;;;2.78;1.67;;;;;;;13.06;100.00;100420.94;5020689;28;20033;-84
2022/11/08 11:19:30;;;;;;;2.63;1.80;;;;;;;13.06;100.00;100417.41;5011319;28;20052;-86
2022/11/08 11:22:07;;;;;;;3.38;1.83;;;;;;;13.07;100.00;100421.81;4996816;28;20053;-84
2022/11/08 11:24:46;;;;;;;3.42;1.58;;;;;;;13.07;100.00;100409.44;5014265;28;20056;-83
2022/11/08 11:27:25;;;;;;;2.47;1.77;;;;;;;13.07;100.00;100403.28;5039827;28;20045;-85
2022/11/08 11:30:20;;;;;;;2.25;1.60;;;;;;;13.06;100.00;100399.78;5033705;28;20034;-84
2022/11/08 11:33:04;;;;;;;1.75;1.65;;;;;;;13.09;100.00;100406.78;4983261;28;20416;-84
2022/11/08 11:35:44;;;;;;;6.30;1.65;;;;;;;13.12;100.00;100408.50;4987749;28;20041;-84
2022/11/08 11:38:52;;;;;;;5.60;1.83;;;;;;;13.13;100.00;100400.56;5031401;28;20038;-83
2022/11/08 11:41:45;;;;;;;2.08;1.55;;;;;;;13.16;100.00;100391.72;5008124;28;20049;-83
2022/11/08 11:44:22;;;;;;;3.78;2.00;;;;;;;13.19;100.00;100357.25;5031673;28;20048;-83
2022/11/08 11:47:01;;;;;;;4.80;1.70;;;;;;;13.24;100.00;100363.34;5016740;28;20041;-82
2022/11/08 11:49:30;;;;;;;3.42;1.75;;;;;;;13.27;100.00;100363.31;5020511;28;20037;-82
2022/11/08 11:51:58;;;;;;;4.18;1.50;;;;;;;13.34;100.00;100374.69;5003305;28;20495;-82
2022/11/08 11:54:31;;;;;;;4.28;1.80;;;;;;;13.41;100.00;100368.41;5013573;28;20037;-81
2022/11/08 11:57:07;;;;;;;3.78;1.70;;;;;;;13.47;100.00;100372.75;5015657;28;20054;-85
2022/11/08 11:59:35;;;;;;;5.25;2.90;;;;;;;13.51;100.00;100377.94;5015191;28;20041;-85